Terminal Aerodrome Forecast
Issued by NWS Lake Charles, LA

Home | Current Version | Previous Version | Text Only | Print | Product List | Glossary On
Versions: 1 2 3 4 5 6 7 8 9 10 11 12 13 14 15 16
000
FTUS44 KLCH 290000 AAA
TAFAEX
TAF AMD
KAEX 290052Z 2901/2924 34003KT P6SM VCTS SCT045CB
      TEMPO 2901/2903 4SM -TSRA BKN025CB
     FM290400 34002KT P6SM OVC250
     FM291500 03006KT P6SM SCT035=

USA.gov is the U.S. government's official web portal to all federal, state and local government web resources and services.